East Brady, PA (16028)

7:12 PM EST on March 01, 2015 (GMT -0500)
Kaylor | Change Station
CLOSE
Current Station
Personal Weather Station
Location: Chicora, PA
Elevation: 1329 ft
Nearby Weather Stations

Elev 1329 ft 40.98 °N, 79.66 °W | Updated 38 seconds ago

Snow
Snow
32.2 °F
Feels Like 32 °F
N
2.7
Wind Variable Wind from NW
Gusts 3.1 mph

Today
High -- | Low -- °F
--% Chance of Precip.
Yesterday
High -- | Low -- °F
Precip. -- in
6:53 AM 6:09 PM
Waxing Gibbous, 88% visible
Pressure 30.19 in
Visibility 1.8 miles
Clouds Overcast 200 ft
Windchill 32 °F
Dew Point 31 °F
Humidity 94%
Rainfall 0.20 in
Snow Depth Not available.
UV 0 out of 12
Pollen .60 out of 12
Air Quality Not available.
Flu Activity Not available.
METAR KBTP 012355Z AUTO 25005KT 1 3/4SM OVC002 00/M01 A3019 RMK AO1 60022 10010 20000 400101110 57010

More Conditions Fewer Conditions

Pressure 30.19 in
Visibility 1.8 miles
Clouds Overcast 200 ft
Windchill 32 °F
Dew Point 31 °F
Humidity 94%
Rainfall 0.20 in
Snow Depth Not available.
UV 0 out of 12
Pollen .60 out of 12
Air Quality Not available.
Flu Activity Not available.
METAR KBTP 012355Z AUTO 25005KT 1 3/4SM OVC002 00/M01 A3019 RMK AO1 60022 10010 20000 400101110 57010

More Conditions Fewer Conditions

10-Day Weather Forecast

Almanac

Astronomy

Mar. 01, 2015 Rise Set
Actual Time
Civil Twilight
Nautical Twilight
Astronomical Twilight
Moon
Length of Visible Light
Length of Day
Tomorrow will be .
, % of the Moon is Illuminated

Today's Extremes

State Highs State Lows

Community

WunderPhotos

Upload Photos

1,801,642 photos uploaded!

WunderBlogs® & News

Nearby

Air Quality

  Air Quality AQ Index Pollutant
Not available.

Snow Depth

Station Depth Elevation

Earthquake Activity

City Distance Mag. Time & Date
Minimum magnitude displayed is 2.5.

Coastal Water Temperatures

Place Temperature

Nearby Weather Stations

Winter Weather Advisory
Statement as of 4:32 PM EST on March 01, 2015

... Winter Weather Advisory remains in effect until 7 am EST
Monday...

* additional snow accumulation... 1 to 3 inches.

* Period of most intense snow... late afternoon into early evening.

* Snow ending... snow will taper off after midnight.

* Impacts... hazardous travel conditions are expected due to snow
accumulation. Additionally... the snow is expected to be very wet
and heavy. People shoveling should use extreme caution and take
frequent breaks to avoid injury.

Precautionary/preparedness actions...

A Winter Weather Advisory for snow means that snowfall will cause
travel difficulties. Be prepared for snow covered roads. Report
snow accumulation to the National Weather Service by calling 412-
262-1988... posting to the NWS Pittsburgh facebook Page... or using
twitter @nwspittsburgh.